createdAt,value
2022-12-01T00:01:09.065Z,71.50
2022-12-01T00:03:36.134Z,71.43
2022-12-01T00:06:05.511Z,71.88
2022-12-01T00:08:33.305Z,68.75
2022-12-01T00:11:12.195Z,72.47
2022-12-01T00:13:38.884Z,73.35
2022-12-01T00:16:13.482Z,74.05
2022-12-01T00:18:40.537Z,69.05
2022-12-01T00:21:14.393Z,75.70
2022-12-01T00:23:49.565Z,75.90
2022-12-01T00:26:17.762Z,72.88
2022-12-01T00:28:44.750Z,75.78
2022-12-01T00:31:12.884Z,72.18
2022-12-01T00:33:40.000Z,73.97
2022-12-01T00:36:07.467Z,79.72
2022-12-01T00:38:35.172Z,75.25
2022-12-01T00:41:02.220Z,78.65
2022-12-01T00:43:28.881Z,72.40
2022-12-01T00:45:56.577Z,75.57
2022-12-01T00:48:23.385Z,75.78
2022-12-01T00:50:54.224Z,78.95
2022-12-01T00:53:22.694Z,75.22
2022-12-01T00:55:49.546Z,75.00
2022-12-01T00:58:16.318Z,75.03
2022-12-01T01:00:47.440Z,74.63
2022-12-01T01:03:14.200Z,75.95
2022-12-01T01:05:42.527Z,72.15
2022-12-01T01:08:11.303Z,74.95
2022-12-01T01:10:42.476Z,73.47
2022-12-01T01:13:09.860Z,74.10
2022-12-01T01:15:37.206Z,75.25
2022-12-01T01:18:04.923Z,78.13
2022-12-01T01:20:32.235Z,77.78
2022-12-01T01:22:59.385Z,76.57
2022-12-01T01:25:26.339Z,77.30
2022-12-01T01:27:53.004Z,75.43
2022-12-01T01:30:20.078Z,79.70
2022-12-01T01:32:46.730Z,79.63
2022-12-01T01:35:13.373Z,75.00
2022-12-01T01:37:40.031Z,73.28
2022-12-01T01:40:07.151Z,80.95
2022-12-01T01:42:33.940Z,75.05
2022-12-01T01:45:02.211Z,79.72
2022-12-01T01:47:36.835Z,77.18
2022-12-01T01:50:15.923Z,79.38
2022-12-01T01:52:48.273Z,82.65
2022-12-01T01:55:15.892Z,83.43
2022-12-01T01:57:44.170Z,80.45
2022-12-01T02:00:18.133Z,82.85
2022-12-01T02:02:46.921Z,81.43
2022-12-01T02:05:24.781Z,79.53
2022-12-01T02:07:55.291Z,79.95
2022-12-01T02:10:29.723Z,88.55
2022-12-01T02:13:09.875Z,81.32
2022-12-01T02:15:51.435Z,82.80
2022-12-01T02:18:35.040Z,81.35
2022-12-01T02:21:27.622Z,82.10
2022-12-01T02:24:32.942Z,83.63
2022-12-01T02:27:02.522Z,84.07
2022-12-01T02:29:47.880Z,86.32
2022-12-01T02:32:20.650Z,83.13
2022-12-01T02:35:05.658Z,80.65
2022-12-01T02:38:00.045Z,85.38
2022-12-01T02:40:45.144Z,89.30
2022-12-01T02:43:41.422Z,83.65
2022-12-01T02:46:15.391Z,87.15
2022-12-01T02:48:49.272Z,87.60
2022-12-01T02:51:29.680Z,85.68
2022-12-01T02:54:02.269Z,85.13
2022-12-01T02:56:29.494Z,89.03
2022-12-01T02:58:56.484Z,86.90
2022-12-01T03:01:46.456Z,89.28
2022-12-01T03:04:19.257Z,85.57
2022-12-01T03:07:13.406Z,84.30
2022-12-01T03:10:08.884Z,88.13
2022-12-01T03:13:03.312Z,87.15
2022-12-01T03:15:48.518Z,86.57
2022-12-01T03:18:27.051Z,85.25
2022-12-01T03:20:56.340Z,84.53
2022-12-01T03:23:27.509Z,83.70
2022-12-01T03:25:56.435Z,85.20
2022-12-01T03:28:31.093Z,86.35
2022-12-01T03:31:04.119Z,87.63
2022-12-01T03:33:43.318Z,82.57
2022-12-01T03:36:20.834Z,87.20
2022-12-01T03:38:55.057Z,85.28
2022-12-01T03:41:29.806Z,88.20
2022-12-01T03:44:06.050Z,87.35
2022-12-01T03:46:42.505Z,85.15
2022-12-01T03:49:09.804Z,84.32
2022-12-01T03:52:11.674Z,85.57
2022-12-01T03:54:58.134Z,89.38
2022-12-01T03:57:30.158Z,82.00
2022-12-01T03:59:57.048Z,83.78
2022-12-01T04:02:27.759Z,83.72
2022-12-01T04:04:54.445Z,87.72
2022-12-01T04:07:22.739Z,84.53
2022-12-01T04:09:50.014Z,86.00
2022-12-01T04:12:33.178Z,85.15
2022-12-01T04:15:02.643Z,90.07
2022-12-01T04:17:29.388Z,85.82
2022-12-01T04:19:58.631Z,87.45
2022-12-01T04:22:25.952Z,90.55
2022-12-01T04:24:53.279Z,88.22
2022-12-01T04:27:20.575Z,89.50
2022-12-01T04:29:47.563Z,90.45
2022-12-01T04:32:14.727Z,87.60
2022-12-01T04:34:41.372Z,86.57
2022-12-01T04:37:09.941Z,85.95
2022-12-01T04:39:36.857Z,89.32
2022-12-01T04:42:04.523Z,89.30
2022-12-01T04:44:34.751Z,91.55
2022-12-01T04:47:02.855Z,89.30
2022-12-01T04:49:29.580Z,87.15
2022-12-01T04:51:56.285Z,91.47
2022-12-01T04:54:23.611Z,88.03
2022-12-01T04:56:50.516Z,90.43
2022-12-01T04:59:17.606Z,89.65
2022-12-01T05:01:44.783Z,89.63
2022-12-01T05:04:13.315Z,89.05
2022-12-01T05:06:42.402Z,88.68
2022-12-01T05:09:16.893Z,93.10
2022-12-01T05:11:44.399Z,91.47
2022-12-01T05:14:11.031Z,87.72
2022-12-01T05:16:37.731Z,95.10
2022-12-01T05:19:24.585Z,92.72
2022-12-01T05:21:52.316Z,87.13
2022-12-01T05:24:20.366Z,91.93
2022-12-01T05:26:47.241Z,89.35
2022-12-01T05:29:14.140Z,91.00
2022-12-01T05:31:41.203Z,91.13
2022-12-01T05:34:08.190Z,94.22
2022-12-01T05:36:34.832Z,93.88
2022-12-01T05:39:01.477Z,90.40
2022-12-01T05:41:28.110Z,93.28
2022-12-01T05:43:54.798Z,98.00
2022-12-01T05:46:21.492Z,93.43
2022-12-01T05:48:48.325Z,93.80
2022-12-01T05:51:16.642Z,91.93
2022-12-01T05:53:44.231Z,93.85
2022-12-01T05:56:11.224Z,92.95
2022-12-01T05:58:37.970Z,94.05
2022-12-01T06:01:04.857Z,98.05
2022-12-01T06:03:31.519Z,91.35
2022-12-01T06:05:58.187Z,97.03
2022-12-01T06:08:24.922Z,97.25
2022-12-01T06:10:51.593Z,95.13
2022-12-01T06:13:18.251Z,96.57
2022-12-01T06:15:44.891Z,100.43
2022-12-01T06:18:11.504Z,97.72
2022-12-01T06:20:38.169Z,98.47
2022-12-01T06:23:04.808Z,99.78
2022-12-01T06:25:31.521Z,95.45
2022-12-01T06:27:58.972Z,95.88
2022-12-01T06:30:26.263Z,99.07
2022-12-01T06:32:52.955Z,92.38
2022-12-01T06:35:20.449Z,93.45
2022-12-01T06:37:47.082Z,95.80
2022-12-01T06:40:14.126Z,93.95
2022-12-01T06:42:40.786Z,95.43
2022-12-01T06:45:07.938Z,97.35
2022-12-01T06:47:34.881Z,94.32
2022-12-01T06:50:02.210Z,91.07
2022-12-01T06:52:28.997Z,95.35
2022-12-01T06:54:55.640Z,94.00
2022-12-01T06:57:22.503Z,95.93
2022-12-01T06:59:49.575Z,99.25
2022-12-01T07:02:17.250Z,103.35
2022-12-01T07:04:43.979Z,94.65
2022-12-01T07:07:12.041Z,95.70
2022-12-01T07:09:39.614Z,96.32
2022-12-01T07:12:06.627Z,95.63
2022-12-01T07:14:33.360Z,99.32
2022-12-01T07:17:00.153Z,96.50
2022-12-01T07:19:26.887Z,99.05
2022-12-01T07:21:53.504Z,100.85
2022-12-01T07:24:20.392Z,94.43
2022-12-01T07:26:48.005Z,97.97
2022-12-01T07:29:14.711Z,101.35
2022-12-01T07:31:41.414Z,100.97
2022-12-01T07:34:13.218Z,101.50
2022-12-01T07:36:39.852Z,99.53
2022-12-01T07:39:08.226Z,96.63
2022-12-01T07:41:35.738Z,96.30
2022-12-01T07:44:02.876Z,98.40
2022-12-01T07:46:29.767Z,97.35
2022-12-01T07:48:57.390Z,96.70
2022-12-01T07:51:25.334Z,94.80
2022-12-01T07:53:53.405Z,91.40
2022-12-01T07:56:21.195Z,92.30
2022-12-01T07:58:48.282Z,95.95
2022-12-01T08:01:18.139Z,95.32
2022-12-01T08:03:45.354Z,93.90
2022-12-01T08:06:12.226Z,91.35
2022-12-01T08:08:40.632Z,94.40
2022-12-01T08:11:11.319Z,90.75
2022-12-01T08:13:38.968Z,94.35
2022-12-01T08:16:07.380Z,100.63
2022-12-01T08:18:38.938Z,91.97
2022-12-01T08:21:07.718Z,92.88
2022-12-01T08:23:34.566Z,90.45
2022-12-01T08:26:06.836Z,90.38
2022-12-01T08:28:36.020Z,94.18
2022-12-01T08:31:19.870Z,87.25
2022-12-01T08:33:48.268Z,92.32
2022-12-01T08:36:15.711Z,94.68
2022-12-01T08:38:46.748Z,89.20
2022-12-01T08:41:15.093Z,86.22
2022-12-01T08:44:00.349Z,88.07
2022-12-01T08:46:31.371Z,86.83
2022-12-01T08:48:58.402Z,87.13
2022-12-01T08:51:25.495Z,85.00
2022-12-01T08:53:52.150Z,84.15
2022-12-01T08:56:24.108Z,87.53
2022-12-01T08:58:51.755Z,82.20
2022-12-01T09:01:19.476Z,76.07
2022-12-01T09:03:46.696Z,76.35
2022-12-01T09:06:21.886Z,72.78
2022-12-01T09:08:48.674Z,77.55
2022-12-01T09:11:19.302Z,77.40
2022-12-01T09:13:52.934Z,76.03
2022-12-01T09:16:21.494Z,75.07
2022-12-01T09:18:48.596Z,73.53
2022-12-01T09:21:32.750Z,77.25
2022-12-01T09:24:01.184Z,76.57
2022-12-01T09:26:28.470Z,72.38
2022-12-01T09:29:00.027Z,70.00
2022-12-01T09:31:27.498Z,70.47
2022-12-01T09:33:59.584Z,70.30
2022-12-01T09:36:28.163Z,70.18
2022-12-01T09:38:54.838Z,75.43
2022-12-01T09:41:24.363Z,70.43
2022-12-01T09:44:17.208Z,69.80
2022-12-01T09:46:50.191Z,72.93
2022-12-01T09:49:44.366Z,69.30
2022-12-01T09:52:17.153Z,68.05
2022-12-01T09:54:43.845Z,70.28
2022-12-01T09:57:32.666Z,67.85
2022-12-01T10:00:03.598Z,70.25
2022-12-01T10:02:41.777Z,72.85
2022-12-01T10:05:23.167Z,73.47
2022-12-01T10:07:59.897Z,68.13
2022-12-01T10:10:40.519Z,70.50
2022-12-01T10:13:25.850Z,65.45
2022-12-01T10:16:31.647Z,60.95
2022-12-01T10:19:22.609Z,56.95
2022-12-01T10:22:03.630Z,53.13
2022-12-01T10:24:53.688Z,53.22
2022-12-01T10:27:43.593Z,50.38
2022-12-01T10:30:25.223Z,44.13
2022-12-01T10:32:59.053Z,46.38
2022-12-01T10:35:36.047Z,45.40
2022-12-01T10:38:13.299Z,48.72
2022-12-01T10:40:41.509Z,46.88
2022-12-01T10:43:10.446Z,44.58
2022-12-01T10:45:45.520Z,44.13
2022-12-01T10:48:20.874Z,52.80
2022-12-01T10:50:52.951Z,45.28
2022-12-01T10:53:22.362Z,47.45
2022-12-01T10:56:15.141Z,52.20
2022-12-01T10:58:44.993Z,51.80
2022-12-01T11:01:37.000Z,50.58
2022-12-01T11:04:21.305Z,54.47
2022-12-01T11:06:51.704Z,54.20
2022-12-01T11:09:26.230Z,49.13
2022-12-01T11:11:59.617Z,58.00
2022-12-01T11:14:51.008Z,57.60
2022-12-01T11:17:29.847Z,55.22
2022-12-01T11:19:56.673Z,57.90
2022-12-01T11:22:34.349Z,54.33
2022-12-01T11:25:02.553Z,49.80
2022-12-01T11:27:50.841Z,52.10
2022-12-01T11:30:26.572Z,50.63
2022-12-01T11:32:57.026Z,51.25
2022-12-01T11:35:30.844Z,53.38
2022-12-01T11:38:28.341Z,53.28
2022-12-01T11:40:58.412Z,45.97
2022-12-01T11:43:26.905Z,47.80
2022-12-01T11:45:56.111Z,45.05
2022-12-01T11:48:28.731Z,48.17
2022-12-01T11:51:10.952Z,47.47
2022-12-01T11:53:40.316Z,48.00
2022-12-01T11:56:13.013Z,46.47
2022-12-01T11:58:40.002Z,49.67
2022-12-01T12:01:29.807Z,44.83
2022-12-01T12:04:06.612Z,48.22
2022-12-01T12:06:53.060Z,53.28
2022-12-01T12:09:48.075Z,53.65
2022-12-01T12:12:43.882Z,54.97
2022-12-01T12:15:34.123Z,55.95
2022-12-01T12:18:22.328Z,54.05
2022-12-01T12:20:57.901Z,53.72
2022-12-01T12:23:27.461Z,57.25
2022-12-01T12:26:00.471Z,55.60
2022-12-01T12:29:13.664Z,61.13
2022-12-01T12:31:55.883Z,59.22
2022-12-01T12:34:29.007Z,63.17
2022-12-01T12:37:18.818Z,63.80
2022-12-01T12:40:22.223Z,62.05
2022-12-01T12:43:04.564Z,63.38
2022-12-01T12:45:31.163Z,57.53
2022-12-01T12:48:06.962Z,59.13
2022-12-01T12:50:54.750Z,63.55
2022-12-01T12:53:31.896Z,59.45
2022-12-01T12:56:02.772Z,65.85
2022-12-01T12:58:36.636Z,62.97
2022-12-01T13:01:13.710Z,58.35
2022-12-01T13:03:57.604Z,61.58
2022-12-01T13:06:37.507Z,67.68
2022-12-01T13:09:19.609Z,63.15
2022-12-01T13:12:04.927Z,66.15
2022-12-01T13:14:40.838Z,61.28
2022-12-01T13:17:19.485Z,57.30
2022-12-01T13:19:47.620Z,59.45
2022-12-01T13:22:16.134Z,60.03
2022-12-01T13:24:43.184Z,58.05
2022-12-01T13:27:09.757Z,60.55
2022-12-01T13:29:47.503Z,54.10
2022-12-01T13:32:34.879Z,46.63
2022-12-01T13:35:06.378Z,46.20
2022-12-01T13:37:37.758Z,47.80
2022-12-01T13:40:19.259Z,50.83
2022-12-01T13:42:57.574Z,48.97
2022-12-01T13:45:24.535Z,52.67
2022-12-01T13:47:55.840Z,47.90
2022-12-01T13:50:43.722Z,41.80
2022-12-01T13:53:27.518Z,45.70
2022-12-01T13:56:00.163Z,47.50
2022-12-01T13:58:33.019Z,49.75
2022-12-01T14:01:22.105Z,45.67
2022-12-01T14:03:56.957Z,44.33
2022-12-01T14:06:36.032Z,46.78
2022-12-01T14:09:13.670Z,41.22
2022-12-01T14:11:40.640Z,41.70
2022-12-01T14:14:12.166Z,41.28
2022-12-01T14:16:51.950Z,41.58
2022-12-01T14:19:47.274Z,42.85
2022-12-01T14:22:44.227Z,39.25
2022-12-01T14:25:20.265Z,39.08
2022-12-01T14:27:56.339Z,41.58
2022-12-01T14:30:41.297Z,45.22
2022-12-01T14:33:39.094Z,44.95
2022-12-01T14:36:10.100Z,43.20
2022-12-01T14:38:36.990Z,41.80
2022-12-01T14:41:10.505Z,38.15
2022-12-01T14:44:00.193Z,39.83
2022-12-01T14:46:29.430Z,40.13
2022-12-01T14:48:58.627Z,39.10
2022-12-01T14:51:33.320Z,35.35
2022-12-01T14:54:06.394Z,34.80
2022-12-01T14:56:34.129Z,35.53
2022-12-01T14:59:13.637Z,33.33
2022-12-01T15:01:40.880Z,31.40
2022-12-01T15:04:07.625Z,39.92
2022-12-01T15:06:36.323Z,32.97
2022-12-01T15:09:32.752Z,30.65
2022-12-01T15:12:06.837Z,32.22
2022-12-01T15:14:38.115Z,28.90
2022-12-01T15:17:06.902Z,32.38
2022-12-01T15:19:41.345Z,28.73
2022-12-01T15:22:16.561Z,28.77
2022-12-01T15:24:45.798Z,30.70
2022-12-01T15:27:29.202Z,33.92
2022-12-01T15:29:58.562Z,36.33
2022-12-01T15:32:27.106Z,31.15
2022-12-01T15:34:56.298Z,30.70
2022-12-01T15:37:26.046Z,31.08
2022-12-01T15:40:00.293Z,29.55
2022-12-01T15:42:39.532Z,28.33
2022-12-01T15:45:15.172Z,28.83
2022-12-01T15:47:43.448Z,33.00
2022-12-01T15:50:38.645Z,29.27
2022-12-01T15:53:29.393Z,27.98
2022-12-01T15:55:59.215Z,29.83
2022-12-01T15:58:32.945Z,30.42
2022-12-01T16:01:03.038Z,31.13
2022-12-01T16:03:30.535Z,29.13
2022-12-01T16:05:58.206Z,30.25
2022-12-01T16:08:27.899Z,28.52
2022-12-01T16:11:17.161Z,30.65
2022-12-01T16:13:49.661Z,34.45
2022-12-01T16:16:49.865Z,33.00
2022-12-01T16:19:16.592Z,36.17
2022-12-01T16:21:53.084Z,36.67
2022-12-01T16:26:52.980Z,42.40
2022-12-01T16:29:21.836Z,45.40
2022-12-01T16:32:19.978Z,43.25
2022-12-01T16:34:46.191Z,42.00
2022-12-01T16:37:14.804Z,47.58
2022-12-01T16:39:41.662Z,48.00
2022-12-01T16:42:12.738Z,44.47
2022-12-01T16:44:39.829Z,46.47
2022-12-01T16:47:13.906Z,47.05
2022-12-01T16:49:40.795Z,48.67
2022-12-01T16:52:42.485Z,46.42
2022-12-01T16:54:54.346Z,39.20
2022-12-01T16:57:20.945Z,40.60
2022-12-01T16:59:47.556Z,38.80
2022-12-01T17:02:14.262Z,40.55
2022-12-01T17:04:40.886Z,44.47
2022-12-01T17:07:07.536Z,47.83
2022-12-01T17:09:34.151Z,43.22
2022-12-01T17:12:00.746Z,51.05
2022-12-01T17:14:27.481Z,52.90
2022-12-01T17:16:54.163Z,53.35
2022-12-01T17:19:20.743Z,52.75
2022-12-01T17:21:47.363Z,51.08
2022-12-01T17:24:18.698Z,50.80
2022-12-01T17:26:45.817Z,54.08
2022-12-01T17:29:12.503Z,49.95
2022-12-01T17:31:39.283Z,53.83
2022-12-01T17:34:05.955Z,52.35
2022-12-01T17:36:32.581Z,49.17
2022-12-01T17:38:59.239Z,53.13
2022-12-01T17:41:32.183Z,52.75
2022-12-01T17:44:02.239Z,51.92
2022-12-01T17:46:30.287Z,53.55
2022-12-01T17:48:57.501Z,45.58
2022-12-01T17:51:24.138Z,45.95
2022-12-01T17:53:50.782Z,44.95
2022-12-01T17:56:17.646Z,47.58
2022-12-01T17:58:44.474Z,46.35
2022-12-01T18:01:17.163Z,48.28
2022-12-01T18:03:44.137Z,47.55
2022-12-01T18:06:11.831Z,48.95
2022-12-01T18:08:39.781Z,45.25
2022-12-01T18:11:10.164Z,50.03
2022-12-01T18:13:43.708Z,49.33
2022-12-01T18:16:14.938Z,47.75
2022-12-01T18:18:42.022Z,49.00
2022-12-01T18:21:10.556Z,48.60
2022-12-01T18:23:37.661Z,52.08
2022-12-01T18:26:08.645Z,45.92
2022-12-01T18:28:39.158Z,48.78
2022-12-01T18:31:07.924Z,51.88
2022-12-01T18:33:37.172Z,46.13
2022-12-01T18:36:05.299Z,44.88
2022-12-01T18:38:32.034Z,50.00
2022-12-01T18:40:59.987Z,49.80
2022-12-01T18:43:31.573Z,48.40
2022-12-01T18:45:58.734Z,49.05
2022-12-01T18:48:26.230Z,45.92
2022-12-01T18:50:59.129Z,47.60
2022-12-01T18:53:26.142Z,48.47
2022-12-01T18:55:52.800Z,53.63
2022-12-01T18:58:19.437Z,52.92
2022-12-01T19:00:46.161Z,54.13
2022-12-01T19:03:12.854Z,58.85
2022-12-01T19:05:40.376Z,55.50
2022-12-01T19:08:07.319Z,59.05
2022-12-01T19:10:33.956Z,56.13
2022-12-01T19:13:01.383Z,50.95
2022-12-01T19:15:28.202Z,54.72
2022-12-01T19:17:54.984Z,55.25
2022-12-01T19:20:21.653Z,51.70
2022-12-01T19:22:48.291Z,53.22
2022-12-01T19:25:15.049Z,53.20
2022-12-01T19:27:41.759Z,54.05
2022-12-01T19:30:08.737Z,50.78
2022-12-01T19:32:35.398Z,52.72
2022-12-01T19:35:02.075Z,56.90
2022-12-01T19:37:29.590Z,55.65
2022-12-01T19:39:56.244Z,48.75
2022-12-01T19:42:22.895Z,51.47
2022-12-01T19:44:49.759Z,56.72
2022-12-01T19:47:21.843Z,53.53
2022-12-01T19:49:48.948Z,53.05
2022-12-01T19:52:15.596Z,55.90
2022-12-01T19:54:42.711Z,56.05
2022-12-01T19:57:09.399Z,54.40
2022-12-01T19:59:36.021Z,54.53
2022-12-01T20:02:03.022Z,57.38
2022-12-01T20:04:29.799Z,56.30
2022-12-01T20:06:56.516Z,59.33
2022-12-01T20:09:23.161Z,58.30
2022-12-01T20:11:49.912Z,56.45
2022-12-01T20:14:16.604Z,58.00
2022-12-01T20:16:43.344Z,59.55
2022-12-01T20:19:10.800Z,62.17
2022-12-01T20:21:44.896Z,56.28
2022-12-01T20:24:15.207Z,58.03
2022-12-01T20:26:44.860Z,58.72
2022-12-01T20:29:15.125Z,54.25
2022-12-01T20:31:42.930Z,54.90
2022-12-01T20:34:19.287Z,54.42
2022-12-01T20:36:46.382Z,51.97
2022-12-01T20:39:14.502Z,51.22
2022-12-01T20:41:42.755Z,49.83
2022-12-01T20:44:11.205Z,48.92
2022-12-01T20:46:40.916Z,49.97
2022-12-01T20:49:08.173Z,49.72
2022-12-01T20:51:35.009Z,46.95
2022-12-01T20:54:27.300Z,53.28
2022-12-01T20:56:50.529Z,52.90
2022-12-01T20:59:17.181Z,51.85
2022-12-01T21:01:43.828Z,48.72
2022-12-01T21:04:10.489Z,49.85
2022-12-01T21:06:37.250Z,51.70
2022-12-01T21:09:04.937Z,50.08
2022-12-01T21:11:56.872Z,49.63
2022-12-01T21:14:51.735Z,50.67
2022-12-01T21:17:31.882Z,56.33
2022-12-01T21:20:05.128Z,58.53
2022-12-01T21:22:31.905Z,54.35
2022-12-01T21:25:18.664Z,54.28
2022-12-01T21:27:47.159Z,50.28
2022-12-01T21:30:17.062Z,48.92
2022-12-01T21:32:44.705Z,45.95
2022-12-01T21:35:24.680Z,47.03
2022-12-01T21:37:59.040Z,49.05
2022-12-01T21:40:27.159Z,51.30
2022-12-01T21:42:55.520Z,50.17
2022-12-01T21:45:30.148Z,52.15
2022-12-01T21:48:00.522Z,48.33
2022-12-01T21:50:27.450Z,48.05
2022-12-01T21:52:54.088Z,51.25
2022-12-01T21:55:20.827Z,51.67
2022-12-01T21:57:52.438Z,52.38
2022-12-01T22:00:29.924Z,50.33
2022-12-01T22:03:08.745Z,53.80
2022-12-01T22:06:00.980Z,53.42
2022-12-01T22:08:40.373Z,54.42
2022-12-01T22:11:13.245Z,58.17
2022-12-01T22:13:55.002Z,58.60
2022-12-01T22:16:30.825Z,55.92
2022-12-01T22:19:27.208Z,53.95
2022-12-01T22:22:16.451Z,57.92
2022-12-01T22:24:46.529Z,56.22
2022-12-01T22:27:38.049Z,58.47
2022-12-01T22:30:07.583Z,57.38
2022-12-01T22:32:48.010Z,54.67
2022-12-01T22:35:32.402Z,60.65
2022-12-01T22:38:10.925Z,62.17
2022-12-01T22:41:18.824Z,56.75
2022-12-01T22:43:45.501Z,60.55
2022-12-01T22:46:17.490Z,53.95
2022-12-01T22:48:46.955Z,59.05
2022-12-01T22:51:13.849Z,57.03
2022-12-01T22:53:42.203Z,55.45
2022-12-01T22:57:04.236Z,56.67
2022-12-01T22:59:35.681Z,60.08
2022-12-01T23:02:15.455Z,61.25
2022-12-01T23:04:46.047Z,61.40
2022-12-01T23:07:35.096Z,58.47
2022-12-01T23:10:07.783Z,61.05
2022-12-01T23:12:35.830Z,65.50
2022-12-01T23:15:21.084Z,58.65
2022-12-01T23:17:48.468Z,60.75
2022-12-01T23:20:31.883Z,57.05
2022-12-01T23:23:01.698Z,59.55
2022-12-01T23:25:28.537Z,60.78
2022-12-01T23:27:59.551Z,61.05
2022-12-01T23:30:26.344Z,58.45
2022-12-01T23:33:01.704Z,57.78
2022-12-01T23:35:28.661Z,60.38
2022-12-01T23:37:55.947Z,66.82
2022-12-01T23:40:35.002Z,58.60
2022-12-01T23:43:23.251Z,66.85
2022-12-01T23:46:03.195Z,64.03
2022-12-01T23:48:35.301Z,61.75
2022-12-01T23:51:02.498Z,61.50
2022-12-01T23:53:32.105Z,65.07
2022-12-01T23:56:10.017Z,64.43
2022-12-01T23:58:36.621Z,62.60
